Time;durP1;ratioP1;P1;durP2;ratioP2;P2;SDS_P1;SDS_P2;PMS_P1;PMS_P2;Temp;Humidity;BMP_temperature;BMP_pressure;BME280_temperature;BME280_humidity;BME280_pressure;Samples;Min_cycle;Max_cycle;Signal;HPM_P1;HPM_P2
2023/01/18 00:00:41;;;;;;;4.38;1.73;;;3.30;99.90;;;;;;5092561;28;20082;-64
2023/01/18 00:03:11;;;;;;;3.70;1.55;;;3.40;99.90;;;;;;5093099;28;20054;-64
2023/01/18 00:05:41;;;;;;;3.10;1.30;;;3.40;99.90;;;;;;5093047;28;20032;-64
2023/01/18 00:08:12;;;;;;;5.25;1.70;;;3.40;99.90;;;;;;5092529;28;20024;-63
2023/01/18 00:10:39;;;;;;;3.25;1.42;;;3.40;99.90;;;;;;5092622;28;20097;-63
2023/01/18 00:13:05;;;;;;;4.85;2.47;;;3.50;99.90;;;;;;5093012;28;20059;-63
2023/01/18 00:15:31;;;;;;;6.68;1.98;;;3.40;99.90;;;;;;5092172;28;20539;-63
2023/01/18 00:17:57;;;;;;;6.35;2.22;;;3.30;99.90;;;;;;5092474;28;20027;-63
2023/01/18 00:20:25;;;;;;;5.28;1.70;;;3.50;99.90;;;;;;5092587;28;20104;-63
2023/01/18 00:22:51;;;;;;;9.07;4.10;;;3.50;99.90;;;;;;5092629;28;20032;-63
2023/01/18 00:25:19;;;;;;;8.70;3.88;;;3.50;99.90;;;;;;5092371;28;20535;-63
2023/01/18 00:27:48;;;;;;;4.53;1.80;;;3.40;99.90;;;;;;5091593;28;20031;-63
2023/01/18 00:30:16;;;;;;;5.82;1.63;;;3.30;99.90;;;;;;5092449;28;20050;-63
2023/01/18 00:32:43;;;;;;;5.47;1.40;;;3.30;99.90;;;;;;5092085;28;20514;-63
2023/01/18 00:35:09;;;;;;;7.40;2.70;;;3.30;99.90;;;;;;5092393;28;20111;-63
2023/01/18 00:37:36;;;;;;;5.88;2.15;;;3.30;99.90;;;;;;5092283;28;20035;-62
2023/01/18 00:40:03;;;;;;;4.93;1.40;;;3.20;99.90;;;;;;5092315;28;20080;-63
2023/01/18 00:45:13;;;;;;;5.10;2.40;;;3.00;99.90;;;;;;5092248;28;20039;-63
2023/01/18 00:47:39;;;;;;;8.45;3.05;;;2.90;99.90;;;;;;5092008;28;20396;-63
2023/01/18 00:50:05;;;;;;;6.03;3.00;;;2.90;99.90;;;;;;5092124;28;20028;-63
2023/01/18 00:52:33;;;;;;;13.60;7.78;;;2.80;99.90;;;;;;5092144;28;20114;-63
2023/01/18 00:55:00;;;;;;;10.40;6.63;;;2.90;99.90;;;;;;5092640;28;20506;-63
2023/01/18 00:57:25;;;;;;;11.95;7.70;;;2.70;99.90;;;;;;5092123;28;20032;-63
2023/01/18 00:59:51;;;;;;;13.93;7.70;;;2.80;99.90;;;;;;5091862;28;20408;-63
2023/01/18 01:02:17;;;;;;;9.90;7.30;;;2.80;99.90;;;;;;5092000;28;20563;-63
2023/01/18 01:07:27;;;;;;;12.15;6.93;;;3.10;99.90;;;;;;5092171;28;20109;-63
2023/01/18 01:09:52;;;;;;;11.75;8.88;;;3.00;99.90;;;;;;5092001;28;20075;-63
2023/01/18 01:26:06;;;;;;;15.52;10.52;;;3.00;99.90;;;;;;5092117;28;20077;-63
2023/01/18 01:28:53;;;;;;;16.73;11.32;;;3.10;99.90;;;;;;5091592;28;20103;-63
2023/01/18 01:31:19;;;;;;;11.00;8.15;;;2.90;99.90;;;;;;5091623;28;20036;-63
2023/01/18 01:33:47;;;;;;;11.07;7.90;;;3.00;99.90;;;;;;5091688;28;20421;-63
2023/01/18 01:36:16;;;;;;;11.70;8.80;;;3.00;99.90;;;;;;5091751;28;20484;-63
2023/01/18 01:38:42;;;;;;;12.98;9.60;;;2.80;99.90;;;;;;5094476;28;20027;-63
2023/01/18 01:41:15;;;;;;;11.00;8.02;;;2.70;99.90;;;;;;5095639;28;20020;-63
2023/01/18 01:43:47;;;;;;;8.57;6.70;;;2.70;99.90;;;;;;5095474;28;20496;-61
2023/01/18 01:46:16;;;;;;;9.75;6.55;;;2.60;99.90;;;;;;5095380;28;20042;-64
2023/01/18 01:48:41;;;;;;;11.70;7.70;;;2.40;99.90;;;;;;5095519;28;20053;-61
2023/01/18 01:51:08;;;;;;;19.67;12.82;;;2.20;99.90;;;;;;5095441;28;20107;-64
2023/01/18 01:53:34;;;;;;;14.77;9.52;;;1.90;99.90;;;;;;5095238;28;20036;-64
2023/01/18 01:55:59;;;;;;;10.40;7.10;;;1.90;99.90;;;;;;5095293;28;20035;-63
2023/01/18 01:58:28;;;;;;;10.38;6.43;;;1.90;99.90;;;;;;5094685;28;20020;-63
2023/01/18 02:00:54;;;;;;;65.35;11.85;;;1.80;99.90;;;;;;5095152;28;20024;-61
2023/01/18 02:03:21;;;;;;;12.23;8.88;;;1.80;99.90;;;;;;5095404;28;20031;-64
2023/01/18 02:06:04;;;;;;;11.00;6.82;;;1.70;99.90;;;;;;5095368;28;20361;-64
2023/01/18 02:08:30;;;;;;;8.40;5.17;;;1.70;99.90;;;;;;5095099;28;20036;-62
2023/01/18 02:10:55;;;;;;;11.60;5.78;;;1.80;99.90;;;;;;5094832;28;20289;-63
2023/01/18 02:13:23;;;;;;;14.35;7.60;;;1.60;99.90;;;;;;5094743;28;20042;-63
2023/01/18 02:16:08;;;;;;;9.48;6.55;;;1.40;99.90;;;;;;5095082;28;20051;-63
2023/01/18 02:19:00;;;;;;;14.82;7.55;;;1.30;99.90;;;;;;5094774;28;20028;-63
2023/01/18 02:21:38;;;;;;;11.50;6.57;;;1.60;99.90;;;;;;5094721;28;20032;-64
2023/01/18 02:24:12;;;;;;;14.23;7.00;;;1.60;99.90;;;;;;5095139;28;20062;-63
2023/01/18 02:26:55;;;;;;;9.77;6.97;;;1.30;99.90;;;;;;5094505;28;20028;-63
2023/01/18 02:29:32;;;;;;;16.05;8.50;;;1.00;99.90;;;;;;5094430;28;20040;-63
2023/01/18 02:32:00;;;;;;;13.30;7.90;;;0.90;99.90;;;;;;5109991;28;20404;-63
2023/01/18 02:34:43;;;;;;;12.27;8.43;;;0.90;99.90;;;;;;5094982;28;20065;-63
2023/01/18 02:37:23;;;;;;;15.15;9.48;;;0.80;99.90;;;;;;5094468;28;20028;-63
2023/01/18 02:40:14;;;;;;;10.18;6.03;;;0.70;99.90;;;;;;5094640;28;20031;-63
2023/01/18 02:48:23;;;;;;;7.40;3.67;;;0.90;99.90;;;;;;5074303;28;20028;-63
2023/01/18 02:50:49;;;;;;;7.78;2.97;;;1.10;99.90;;;;;;5073532;28;20021;-61
2023/01/18 02:53:15;;;;;;;6.03;3.80;;;1.50;99.90;;;;;;5073825;28;20033;-63
2023/01/18 02:55:47;;;;;;;6.85;3.63;;;1.60;99.90;;;;;;5073674;28;20100;-64
2023/01/18 02:58:27;;;;;;;4.90;2.72;;;1.80;99.90;;;;;;5073774;28;20135;-63
2023/01/18 03:01:05;;;;;;;7.45;3.60;;;1.70;99.90;;;;;;5073957;28;20489;-64
2023/01/18 03:03:31;;;;;;;46.45;25.60;;;1.80;99.90;;;;;;5073670;28;20036;-64
2023/01/18 03:06:00;;;;;;;7.28;4.60;;;1.50;99.90;;;;;;5073627;28;20537;-64
2023/01/18 03:08:35;;;;;;;10.75;7.72;;;1.60;99.90;;;;;;5073781;28;20036;-64
2023/01/18 03:11:10;;;;;;;18.35;11.57;;;1.40;99.90;;;;;;5072975;28;20040;-62
2023/01/18 03:13:41;;;;;;;15.65;8.57;;;1.40;99.90;;;;;;5073523;28;20094;-62
2023/01/18 03:16:17;;;;;;;20.95;11.25;;;1.40;99.90;;;;;;5073307;28;20031;-64
2023/01/18 03:21:52;;;;;;;14.85;6.95;;;1.20;99.90;;;;;;5074041;28;20035;-62
2023/01/18 03:24:19;;;;;;;16.20;8.77;;;1.10;99.90;;;;;;5072911;28;20392;-63
2023/01/18 03:26:48;;;;;;;46.58;25.17;;;1.00;99.90;;;;;;5073140;28;20046;-61
2023/01/18 03:35:06;;;;;;;28.55;19.20;;;0.80;99.90;;;;;;5073162;28;20056;-64
2023/01/18 03:37:38;;;;;;;16.08;10.43;;;0.80;99.90;;;;;;5073020;28;20033;-64
2023/01/18 03:40:09;;;;;;;34.75;22.23;;;0.80;99.90;;;;;;5072750;28;20063;-64
2023/01/18 03:42:56;;;;;;;11.27;7.93;;;0.70;99.90;;;;;;5073212;28;20141;-64
2023/01/18 03:45:28;;;;;;;11.07;6.40;;;0.60;99.90;;;;;;5073189;28;20563;-64
2023/01/18 03:47:54;;;;;;;12.40;6.75;;;0.50;99.90;;;;;;5092484;28;20052;-63
2023/01/18 03:50:28;;;;;;;10.85;8.07;;;0.50;99.90;;;;;;5093171;28;20604;-63
2023/01/18 03:53:03;;;;;;;8.93;7.80;;;0.50;99.90;;;;;;5092997;28;20426;-63
2023/01/18 03:55:39;;;;;;;10.77;7.78;;;0.50;99.90;;;;;;5092927;28;20400;-63
2023/01/18 03:58:13;;;;;;;7.40;4.90;;;0.70;99.90;;;;;;5092884;28;20020;-64
2023/01/18 04:00:40;;;;;;;8.48;4.95;;;0.90;99.90;;;;;;5092849;28;20024;-64
2023/01/18 04:03:06;;;;;;;6.60;5.10;;;1.10;99.90;;;;;;5092957;28;20395;-64
2023/01/18 04:05:33;;;;;;;8.38;5.45;;;1.30;99.90;;;;;;5092707;28;20068;-63
2023/01/18 04:07:59;;;;;;;10.70;8.43;;;1.30;99.90;;;;;;5092579;28;20024;-63
2023/01/18 04:10:25;;;;;;;7.68;6.32;;;1.20;99.90;;;;;;5092511;28;20094;-63
2023/01/18 04:12:51;;;;;;;12.32;10.13;;;1.30;99.90;;;;;;5092415;28;20036;-64
2023/01/18 04:15:18;;;;;;;10.15;8.38;;;1.10;99.90;;;;;;5092834;28;20073;-63
2023/01/18 04:17:44;;;;;;;9.30;7.32;;;1.20;99.90;;;;;;5092383;28;20502;-63
2023/01/18 04:20:10;;;;;;;10.15;8.15;;;1.00;99.90;;;;;;5092639;28;20099;-64
2023/01/18 04:22:35;;;;;;;12.90;9.02;;;1.00;99.90;;;;;;5092558;28;20028;-63
2023/01/18 04:25:01;;;;;;;38.63;19.30;;;0.90;99.90;;;;;;5092519;28;20525;-64
2023/01/18 04:27:27;;;;;;;24.77;14.15;;;0.70;99.90;;;;;;5092329;28;20028;-64
2023/01/18 04:29:53;;;;;;;12.05;7.30;;;0.60;99.90;;;;;;5092446;28;20077;-63
2023/01/18 04:32:18;;;;;;;12.23;9.18;;;0.80;99.90;;;;;;5092856;28;20027;-63
2023/01/18 04:34:44;;;;;;;37.45;22.63;;;0.70;99.90;;;;;;5092400;28;20028;-63
2023/01/18 04:37:10;;;;;;;82.10;44.53;;;0.70;99.90;;;;;;5092011;28;20484;-64
2023/01/18 04:39:35;;;;;;;20.25;12.70;;;0.70;99.90;;;;;;5090863;28;20036;-64
2023/01/18 04:42:01;;;;;;;66.45;42.25;;;0.80;99.90;;;;;;5092582;28;20103;-63
2023/01/18 04:44:27;;;;;;;61.00;39.25;;;0.80;99.90;;;;;;5092254;28;20098;-64
2023/01/18 04:46:52;;;;;;;135.82;79.63;;;0.90;99.90;;;;;;5092016;28;20024;-64
2023/01/18 04:49:18;;;;;;;53.78;40.30;;;0.90;99.90;;;;;;5092615;28;20028;-64
2023/01/18 04:51:45;;;;;;;255.30;186.23;;;1.00;99.90;;;;;;5090489;28;20036;-64
2023/01/18 04:54:13;;;;;;;52.70;41.40;;;1.00;99.90;;;;;;5091936;28;20412;-64
2023/01/18 04:56:39;;;;;;;100.68;78.65;;;0.90;99.90;;;;;;5092162;28;20107;-63
2023/01/18 04:59:05;;;;;;;217.00;167.98;;;1.00;99.90;;;;;;5092196;28;20063;-64
2023/01/18 05:01:32;;;;;;;247.15;183.93;;;0.90;99.90;;;;;;5092076;28;20031;-64
2023/01/18 05:03:58;;;;;;;50.13;39.53;;;1.00;99.90;;;;;;5091996;28;20427;-63
2023/01/18 05:06:24;;;;;;;283.25;223.18;;;1.10;99.90;;;;;;5091550;28;20032;-64
2023/01/18 05:08:50;;;;;;;156.77;122.20;;;1.00;99.90;;;;;;5092203;28;20051;-62
2023/01/18 05:11:19;;;;;;;223.27;159.63;;;1.00;99.90;;;;;;5091975;28;20035;-64
2023/01/18 05:13:45;;;;;;;448.85;316.00;;;0.90;99.90;;;;;;5094376;28;20040;-64
2023/01/18 05:16:21;;;;;;;101.18;72.68;;;0.80;99.90;;;;;;5095944;28;20437;-64
2023/01/18 05:18:47;;;;;;;536.70;394.75;;;0.80;99.90;;;;;;5096010;28;20016;-64
2023/01/18 05:21:13;;;;;;;272.35;199.02;;;0.80;99.90;;;;;;5095957;28;20042;-64
2023/01/18 05:23:39;;;;;;;104.28;76.25;;;0.80;99.90;;;;;;5096059;28;20076;-64
2023/01/18 05:26:13;;;;;;;313.13;234.20;;;0.90;99.90;;;;;;5095828;28;20028;-64
2023/01/18 05:28:39;;;;;;;294.75;202.23;;;0.90;99.90;;;;;;5095755;28;20016;-62
2023/01/18 05:31:05;;;;;;;212.13;146.60;;;0.70;99.90;;;;;;5095964;28;20032;-64
2023/01/18 05:33:31;;;;;;;384.58;265.25;;;0.80;99.90;;;;;;5095661;28;20047;-64
2023/01/18 05:35:57;;;;;;;147.48;102.22;;;0.60;99.90;;;;;;5095520;28;20028;-64
2023/01/18 05:38:22;;;;;;;137.63;93.75;;;0.60;99.90;;;;;;5095695;28;20028;-64
2023/01/18 05:40:53;;;;;;;333.10;228.10;;;0.50;99.90;;;;;;5095652;28;20031;-63
2023/01/18 05:43:22;;;;;;;837.72;454.70;;;0.50;99.90;;;;;;5095928;28;20025;-64
2023/01/18 05:45:48;;;;;;;428.02;200.52;;;0.50;99.90;;;;;;5095329;28;20020;-64
2023/01/18 05:48:14;;;;;;;237.20;132.43;;;0.50;99.90;;;;;;5095431;28;20406;-64
2023/01/18 05:50:42;;;;;;;19.88;17.77;;;0.50;99.90;;;;;;5095036;28;20016;-64
2023/01/18 05:53:08;;;;;;;17.65;16.20;;;0.50;99.90;;;;;;5095331;28;20063;-64
2023/01/18 05:55:34;;;;;;;11.60;7.88;;;0.50;99.90;;;;;;5095336;28;20070;-64
2023/01/18 05:58:00;;;;;;;25.23;22.92;;;0.70;99.90;;;;;;5095207;28;20032;-64
2023/01/18 06:00:26;;;;;;;18.45;16.25;;;0.70;99.90;;;;;;5095328;28;20028;-64
2023/01/18 06:02:52;;;;;;;9.65;8.70;;;0.70;99.90;;;;;;5095638;28;20035;-64
2023/01/18 06:05:19;;;;;;;52.05;47.75;;;0.70;99.90;;;;;;5094672;28;20025;-64
2023/01/18 06:07:46;;;;;;;42.97;39.10;;;0.60;99.90;;;;;;5094863;28;20020;-64
2023/01/18 06:10:13;;;;;;;123.45;111.95;;;0.60;99.90;;;;;;5094870;28;20048;-64
2023/01/18 06:12:39;;;;;;;172.32;153.75;;;0.50;99.90;;;;;;5094814;28;20035;-64
2023/01/18 06:15:05;;;;;;;376.63;338.65;;;0.50;99.90;;;;;;5095175;28;20024;-64
2023/01/18 06:17:31;;;;;;;82.78;74.40;;;0.50;99.90;;;;;;5094954;28;20024;-64
2023/01/18 06:19:57;;;;;;;116.35;103.68;;;0.40;99.90;;;;;;5094667;28;20154;-64
2023/01/18 06:22:22;;;;;;;68.65;61.25;;;0.30;99.90;;;;;;5095007;28;20028;-64
2023/01/18 06:24:48;;;;;;;77.35;69.25;;;0.30;99.90;;;;;;5093295;28;20024;-64
2023/01/18 06:27:14;;;;;;;61.70;55.08;;;0.10;99.90;;;;;;5094479;28;20169;-64
2023/01/18 06:29:40;;;;;;;43.50;38.80;;;0.20;99.90;;;;;;5094539;28;20107;-64
2023/01/18 06:32:06;;;;;;;29.33;26.15;;;0.10;99.90;;;;;;5094421;28;20020;-64
2023/01/18 06:34:32;;;;;;;19.05;13.43;;;0.20;99.90;;;;;;5094167;28;20024;-64
2023/01/18 06:36:58;;;;;;;31.63;20.02;;;0.10;99.90;;;;;;5094528;28;20058;-64
2023/01/18 06:39:24;;;;;;;13.18;10.13;;;0.00;99.90;;;;;;5094601;28;20035;-64
2023/01/18 06:41:49;;;;;;;18.58;12.35;;;0.00;99.90;;;;;;5094445;28;20111;-64
2023/01/18 06:44:15;;;;;;;15.27;10.73;;;0.00;99.90;;;;;;5094344;28;20016;-63
2023/01/18 06:46:44;;;;;;;9.93;7.20;;;0.00;99.90;;;;;;5093686;28;20496;-62
2023/01/18 06:49:11;;;;;;;15.73;11.68;;;-0.30;99.90;;;;;;5094080;28;20024;-63
2023/01/18 06:51:37;;;;;;;12.77;10.32;;;-0.30;99.90;;;;;;5094186;28;20043;-64
2023/01/18 06:54:03;;;;;;;10.32;8.75;;;-0.30;99.90;;;;;;5093908;28;20056;-63
2023/01/18 06:56:29;;;;;;;90.90;59.22;;;-0.40;99.90;;;;;;5094463;28;20016;-63
2023/01/18 06:58:57;;;;;;;15.02;9.80;;;-0.40;99.90;;;;;;5094096;28;20031;-63
2023/01/18 07:01:24;;;;;;;14.65;10.18;;;-0.50;99.90;;;;;;5093602;28;20035;-63
2023/01/18 07:03:50;;;;;;;61.53;39.80;;;-0.70;99.90;;;;;;5093981;28;20020;-64
2023/01/18 07:06:16;;;;;;;21.35;16.38;;;-0.70;99.90;;;;;;5093715;28;20080;-64
2023/01/18 07:08:42;;;;;;;18.40;15.05;;;-0.80;99.90;;;;;;5094182;28;20031;-64
2023/01/18 07:11:10;;;;;;;67.00;55.20;;;-0.90;99.90;;;;;;5093815;28;20044;-64
2023/01/18 07:13:39;;;;;;;65.65;47.40;;;-0.80;99.90;;;;;;5093818;28;20384;-64
2023/01/18 07:16:07;;;;;;;97.50;63.05;;;-0.70;99.90;;;;;;5093732;28;20388;-63
2023/01/18 07:18:33;;;;;;;73.32;52.25;;;-0.70;99.90;;;;;;5093648;28;20092;-64
2023/01/18 07:21:05;;;;;;;69.03;53.85;;;-0.60;99.90;;;;;;5093788;28;20036;-63
2023/01/18 07:23:37;;;;;;;78.55;60.42;;;-0.90;99.90;;;;;;5093993;28;20415;-64
2023/01/18 07:26:12;;;;;;;104.13;75.10;;;-1.10;99.90;;;;;;5093750;28;20089;-64
2023/01/18 07:28:37;;;;;;;81.22;67.13;;;-1.20;99.90;;;;;;5093585;28;20024;-63
2023/01/18 07:31:06;;;;;;;68.47;56.05;;;-1.30;99.90;;;;;;5093208;28;20024;-63
2023/01/18 07:33:33;;;;;;;78.82;57.75;;;-1.20;99.90;;;;;;5093639;28;20028;-62
2023/01/18 07:35:59;;;;;;;90.97;63.58;;;-1.10;99.90;;;;;;5092921;28;20024;-64
2023/01/18 07:38:25;;;;;;;63.00;46.03;;;-1.30;99.90;;;;;;5093231;28;20028;-64
2023/01/18 07:40:57;;;;;;;85.18;57.47;;;-1.30;99.90;;;;;;5093267;28;20020;-62
2023/01/18 07:43:23;;;;;;;78.82;53.10;;;-1.30;99.90;;;;;;5093006;28;20062;-61
2023/01/18 07:45:53;;;;;;;77.25;47.97;;;-1.20;99.90;;;;;;5092802;28;20055;-61
2023/01/18 07:48:19;;;;;;;52.38;38.03;;;-1.20;99.90;;;;;;5093094;28;20032;-63
2023/01/18 07:50:52;;;;;;;58.65;37.50;;;-0.70;99.90;;;;;;5093557;28;20012;-63
2023/01/18 07:53:18;;;;;;;43.85;33.08;;;-0.60;99.90;;;;;;5092735;28;20032;-63
2023/01/18 07:55:44;;;;;;;37.22;23.75;;;-0.70;99.90;;;;;;5093117;28;20032;-63
2023/01/18 07:58:10;;;;;;;33.40;25.73;;;-0.60;99.90;;;;;;5092741;28;20410;-63
2023/01/18 08:00:35;;;;;;;33.45;23.77;;;-0.60;99.90;;;;;;5091967;28;20099;-62
2023/01/18 08:03:01;;;;;;;29.40;22.75;;;-0.40;99.90;;;;;;5092948;28;20039;-63
2023/01/18 08:05:28;;;;;;;33.25;25.85;;;-0.50;99.90;;;;;;5092813;28;20020;-63
2023/01/18 08:07:54;;;;;;;42.83;34.45;;;-0.40;99.90;;;;;;5092414;28;20111;-62
2023/01/18 08:10:20;;;;;;;35.78;26.17;;;-0.20;99.90;;;;;;5092632;28;20463;-63
2023/01/18 08:12:46;;;;;;;36.55;27.63;;;-0.10;99.90;;;;;;5092504;28;20607;-62
2023/01/18 08:15:13;;;;;;;225.00;68.35;;;-0.10;99.90;;;;;;5092133;28;20051;-62
2023/01/18 08:17:39;;;;;;;1999.90;524.25;;;1.50;99.90;;;;;;5092719;28;20028;-62
2023/01/18 08:20:08;;;;;;;986.70;109.18;;;3.00;99.90;;;;;;5092751;28;20028;-62
2023/01/18 08:22:34;;;;;;;66.35;19.63;;;3.90;99.90;;;;;;5092570;28;20024;-64
2023/01/18 08:25:00;;;;;;;438.27;55.78;;;4.50;99.90;;;;;;5092572;28;20035;-61
2023/01/18 08:27:26;;;;;;;13.18;11.05;;;5.50;99.90;;;;;;5092346;28;20067;-61
2023/01/18 08:29:52;;;;;;;13.43;8.38;;;6.30;99.90;;;;;;5091950;28;20089;-63
2023/01/18 08:32:18;;;;;;;8.80;7.30;;;6.00;99.90;;;;;;5092366;28;20480;-61
2023/01/18 08:34:43;;;;;;;7.32;6.25;;;6.50;99.90;;;;;;5092392;28;20039;-60
2023/01/18 08:37:10;;;;;;;9.23;7.15;;;6.90;99.90;;;;;;5092160;28;20103;-62
2023/01/18 08:39:37;;;;;;;14.02;11.00;;;6.60;99.90;;;;;;5092247;28;20107;-63
2023/01/18 08:42:03;;;;;;;13.65;10.30;;;7.30;99.90;;;;;;5092553;28;20055;-61
2023/01/18 08:44:29;;;;;;;9.77;7.10;;;8.30;99.90;;;;;;5091980;28;20660;-60
2023/01/18 08:46:54;;;;;;;13.75;9.45;;;9.40;99.90;;;;;;5091553;28;20024;-63
2023/01/18 08:49:20;;;;;;;9.60;8.48;;;8.50;99.90;;;;;;5092146;28;20024;-63
2023/01/18 08:51:46;;;;;;;9.15;6.65;;;8.50;99.90;;;;;;5092470;28;20017;-63
2023/01/18 08:54:11;;;;;;;9.10;6.40;;;8.90;99.90;;;;;;5091797;28;20039;-63
2023/01/18 08:56:37;;;;;;;7.40;5.72;;;8.30;99.90;;;;;;5091738;28;20028;-62
2023/01/18 08:59:07;;;;;;;7.95;5.60;;;8.30;99.90;;;;;;5091871;28;20039;-62
2023/01/18 09:01:32;;;;;;;6.90;5.03;;;8.70;99.90;;;;;;5091860;28;20047;-63
2023/01/18 09:03:58;;;;;;;6.72;5.18;;;9.10;99.90;;;;;;5092102;28;20461;-62
2023/01/18 09:06:30;;;;;;;4.90;4.43;;;10.00;99.90;;;;;;5092077;28;20024;-62
2023/01/18 09:08:56;;;;;;;6.20;4.60;;;9.80;99.90;;;;;;5092045;28;20027;-62
2023/01/18 09:11:22;;;;;;;5.28;3.95;;;10.80;99.90;;;;;;5091999;28;20042;-63
2023/01/18 09:13:52;;;;;;;6.60;4.72;;;10.20;99.90;;;;;;5091565;28;20381;-62
2023/01/18 09:16:18;;;;;;;4.68;3.42;;;9.60;99.90;;;;;;5091903;28;20027;-62
2023/01/18 09:18:44;;;;;;;5.22;3.20;;;11.40;99.90;;;;;;5092302;28;20099;-62
2023/01/18 09:21:12;;;;;;;6.15;3.28;;;13.10;99.90;;;;;;5091998;28;20469;-63
2023/01/18 09:23:39;;;;;;;5.80;4.70;;;12.70;99.90;;;;;;5091735;28;20032;-61
2023/01/18 09:26:15;;;;;;;5.97;4.93;;;12.30;99.90;;;;;;5091921;28;20031;-62
2023/01/18 09:28:47;;;;;;;5.75;4.30;;;11.70;99.90;;;;;;5091830;28;20027;-63
2023/01/18 09:31:13;;;;;;;4.63;4.07;;;11.50;99.90;;;;;;5091789;28;20103;-61
2023/01/18 09:33:41;;;;;;;6.40;3.45;;;11.90;99.90;;;;;;5091576;28;20173;-62
2023/01/18 09:36:08;;;;;;;5.55;3.30;;;12.50;99.90;;;;;;5091481;28;20031;-62
2023/01/18 09:38:35;;;;;;;4.38;3.10;;;12.00;99.90;;;;;;5090970;28;20495;-62
2023/01/18 09:41:02;;;;;;;4.50;3.55;;;12.10;99.90;;;;;;5091435;28;20102;-61
2023/01/18 09:43:33;;;;;;;6.93;3.28;;;12.40;99.90;;;;;;5090282;28;20028;-62
2023/01/18 09:46:00;;;;;;;3.90;3.00;;;13.20;99.90;;;;;;5091554;28;20043;-62
2023/01/18 09:48:36;;;;;;;4.05;2.70;;;13.40;99.90;;;;;;5092037;28;20530;-63
2023/01/18 09:51:19;;;;;;;4.68;2.38;;;12.50;99.90;;;;;;5091657;28;20032;-63
2023/01/18 09:53:50;;;;;;;4.80;2.67;;;12.40;99.90;;;;;;5091586;28;20029;-63
2023/01/18 09:56:30;;;;;;;6.43;2.55;;;13.20;99.90;;;;;;5091596;28;20125;-63
2023/01/18 09:59:19;;;;;;;4.47;2.83;;;13.40;99.90;;;;;;5092867;28;20032;-62
2023/01/18 10:01:46;;;;;;;5.75;3.10;;;13.70;99.90;;;;;;5095258;28;20031;-63
2023/01/18 10:04:22;;;;;;;4.95;3.50;;;14.30;99.90;;;;;;5095054;28;20103;-63
2023/01/18 10:07:11;;;;;;;5.10;3.00;;;14.20;99.90;;;;;;5094970;28;20095;-63
2023/01/18 10:09:51;;;;;;;4.13;2.63;;;14.20;99.90;;;;;;5095030;28;20420;-63
2023/01/18 10:12:22;;;;;;;3.97;2.80;;;14.70;99.90;;;;;;5094820;28;20039;-63
2023/01/18 10:15:09;;;;;;;8.18;4.28;;;13.70;99.90;;;;;;5095008;28;20742;-62
2023/01/18 10:17:40;;;;;;;7.13;4.40;;;13.50;99.90;;;;;;5095199;28;20066;-63
2023/01/18 10:20:31;;;;;;;4.18;2.20;;;13.40;99.90;;;;;;5094824;28;20103;-63
2023/01/18 10:23:00;;;;;;;4.40;2.50;;;12.40;99.90;;;;;;5094938;28;20020;-63
2023/01/18 10:25:28;;;;;;;4.18;2.65;;;11.20;99.90;;;;;;5094351;28;20063;-63
2023/01/18 10:28:11;;;;;;;5.80;3.47;;;10.00;99.90;;;;;;5094690;28;20542;-63
2023/01/18 10:31:05;;;;;;;6.80;4.20;;;9.20;99.90;;;;;;5094714;28;20108;-63
2023/01/18 10:33:37;;;;;;;;;;;8.20;99.90;;;;;;5094986;28;20089;-61
2023/01/18 10:36:19;;;;;;;8.07;2.97;;;7.40;99.90;;;;;;5094588;28;20037;-63
2023/01/18 10:38:48;;;;;;;5.63;2.67;;;7.10;99.90;;;;;;5093207;28;20027;-62
2023/01/18 10:41:26;;;;;;;5.03;2.78;;;6.80;99.90;;;;;;5093387;28;20024;-63
2023/01/18 10:43:53;;;;;;;4.70;3.00;;;6.40;99.90;;;;;;5094238;28;20112;-64
2023/01/18 10:46:19;;;;;;;6.25;3.00;;;6.50;99.90;;;;;;5094175;28;20028;-64
2023/01/18 10:48:50;;;;;;;6.38;2.90;;;6.40;99.90;;;;;;5110106;28;20035;-64
2023/01/18 10:51:23;;;;;;;8.45;3.00;;;6.30;99.90;;;;;;5094216;28;20295;-63
2023/01/18 10:53:49;;;;;;;5.72;2.90;;;6.10;99.90;;;;;;5093812;28;20116;-63
2023/01/18 10:56:19;;;;;;;8.07;3.40;;;6.10;99.90;;;;;;5093719;28;20483;-63
2023/01/18 10:58:50;;;;;;;5.30;3.08;;;6.00;99.90;;;;;;5094177;28;20055;-63
2023/01/18 11:01:19;;;;;;;5.97;3.17;;;6.10;99.90;;;;;;5094151;28;20028;-63
2023/01/18 11:03:47;;;;;;;8.07;4.32;;;5.90;99.90;;;;;;5094065;28;20024;-64
2023/01/18 11:06:15;;;;;;;5.82;3.75;;;5.70;99.90;;;;;;5093895;28;20032;-63
2023/01/18 11:08:42;;;;;;;7.90;3.30;;;5.90;99.90;;;;;;5093711;28;20484;-64
2023/01/18 11:14:33;;;;;;;6.68;4.40;;;5.80;99.90;;;;;;5071170;28;20087;-64
2023/01/18 11:17:10;;;;;;;8.15;4.85;;;5.80;99.90;;;;;;5071774;28;20107;-63
2023/01/18 11:19:36;;;;;;;7.78;4.13;;;5.60;99.90;;;;;;5071274;28;20040;-64
2023/01/18 11:22:02;;;;;;;5.10;3.55;;;5.60;99.90;;;;;;5071075;28;20493;-64
2023/01/18 11:24:30;;;;;;;5.38;3.40;;;5.50;99.90;;;;;;5070770;28;20027;-64
2023/01/18 11:27:16;;;;;;;6.95;3.63;;;5.40;99.90;;;;;;5071469;28;20032;-64
2023/01/18 11:29:44;;;;;;;6.85;3.80;;;5.40;99.90;;;;;;5071164;28;20104;-63
2023/01/18 11:32:18;;;;;;;8.65;4.50;;;5.30;99.90;;;;;;5070736;28;20075;-63
2023/01/18 11:34:48;;;;;;;;;;;5.40;99.90;;;;;;5071226;28;20404;-63
2023/01/18 11:37:36;;;;;;;9.25;4.57;;;5.40;99.90;;;;;;5069595;28;19908;-64
2023/01/18 11:40:21;;;;;;;8.82;4.43;;;5.40;99.90;;;;;;5070054;28;20089;-65
2023/01/18 11:42:49;;;;;;;8.27;5.30;;;5.40;99.90;;;;;;5070683;28;20033;-65
2023/01/18 11:45:34;;;;;;;9.30;6.20;;;5.40;99.90;;;;;;5070821;28;20056;-65
2023/01/18 11:48:18;;;;;;;11.05;8.02;;;5.40;99.90;;;;;;5050720;28;20033;-65
2023/01/18 11:50:59;;;;;;;17.48;14.85;;;5.20;99.90;;;;;;5057070;28;20135;-65
2023/01/18 11:53:49;;;;;;;10.45;8.88;;;5.20;99.90;;;;;;5072109;28;20119;-65
2023/01/18 11:56:46;;;;;;;10.90;6.40;;;5.10;99.90;;;;;;5072603;28;20032;-65
2023/01/18 11:59:32;;;;;;;7.97;5.95;;;5.20;99.90;;;;;;5072866;28;20439;-66
2023/01/18 12:02:26;;;;;;;11.88;7.32;;;5.00;99.90;;;;;;5072961;28;20484;-64
2023/01/18 12:04:55;;;;;;;;;;;4.90;99.90;;;;;;5073041;28;20020;-64
2023/01/18 12:07:37;;;;;;;23.45;18.15;;;4.70;99.90;;;;;;5083211;28;19961;-62
2023/01/18 12:10:07;;;;;;;13.60;10.07;;;4.70;99.90;;;;;;5092526;28;20060;-64
2023/01/18 12:12:39;;;;;;;19.42;15.93;;;4.80;99.90;;;;;;5092296;28;20048;-64
2023/01/18 12:15:22;;;;;;;12.88;8.90;;;4.70;99.90;;;;;;5092911;28;20032;-64
2023/01/18 12:18:15;;;;;;;14.70;8.80;;;4.70;99.90;;;;;;5092498;28;20036;-64
2023/01/18 12:21:11;;;;;;;17.83;13.18;;;4.70;99.90;;;;;;5092017;28;20031;-64
2023/01/18 12:23:43;;;;;;;18.65;16.63;;;4.50;99.90;;;;;;5083417;28;20032;-64
2023/01/18 12:26:33;;;;;;;18.60;16.58;;;4.50;99.90;;;;;;5092355;28;20081;-64
2023/01/18 12:29:22;;;;;;;5.82;3.30;;;4.50;99.90;;;;;;5092404;28;20023;-64
2023/01/18 12:32:26;;;;;;;5.53;3.20;;;4.00;99.90;;;;;;5092351;28;20027;-64
2023/01/18 12:35:15;;;;;;;7.97;4.97;;;3.60;99.90;;;;;;5092052;28;20443;-64
2023/01/18 12:38:00;;;;;;;7.80;4.10;;;3.40;99.90;;;;;;5092401;28;20388;-63
2023/01/18 12:40:44;;;;;;;5.72;2.97;;;3.30;99.90;;;;;;5092361;28;20111;-64
2023/01/18 12:43:11;;;;;;;7.45;2.90;;;3.10;99.90;;;;;;5092687;28;20020;-64
2023/01/18 12:45:45;;;;;;;6.55;4.82;;;3.00;99.90;;;;;;5092163;28;20023;-64
2023/01/18 12:48:30;;;;;;;7.38;3.10;;;2.90;99.90;;;;;;5092335;28;20036;-64
2023/01/18 12:50:59;;;;;;;7.47;3.70;;;2.90;99.90;;;;;;5091845;28;20024;-64
2023/01/18 12:53:43;;;;;;;5.30;3.33;;;2.60;99.90;;;;;;5092096;28;20107;-64
2023/01/18 12:56:36;;;;;;;20.92;12.15;;;2.20;99.90;;;;;;5092158;28;20391;-64
2023/01/18 12:59:10;;;;;;;7.20;3.60;;;2.10;99.90;;;;;;5092264;28;20016;-64
2023/01/18 13:01:43;;;;;;;6.47;3.05;;;2.10;99.90;;;;;;5092616;28;20368;-64
2023/01/18 13:04:28;;;;;;;10.77;8.23;;;2.10;99.90;;;;;;5091677;28;20028;-64
2023/01/18 13:07:01;;;;;;;11.43;6.95;;;1.60;99.90;;;;;;5091867;28;20486;-64
2023/01/18 13:09:34;;;;;;;7.88;5.63;;;1.80;99.90;;;;;;5091901;28;20044;-64
2023/01/18 13:12:02;;;;;;;6.25;4.65;;;1.70;99.90;;;;;;5092055;28;20024;-64
2023/01/18 13:14:40;;;;;;;5.85;5.25;;;1.70;99.90;;;;;;5091972;28;20040;-64
2023/01/18 13:17:27;;;;;;;4.82;3.85;;;1.80;99.90;;;;;;5092367;28;20035;-64
2023/01/18 13:19:59;;;;;;;4.10;3.20;;;1.90;99.90;;;;;;5091159;28;20035;-64
2023/01/18 13:22:45;;;;;;;3.03;2.70;;;2.00;99.90;;;;;;5091968;28;20025;-64
2023/01/18 13:25:43;;;;;;;3.53;2.70;;;2.00;99.90;;;;;;5091982;28;20376;-63
2023/01/18 13:28:19;;;;;;;5.45;4.03;;;1.90;99.90;;;;;;5087502;28;20107;-64
2023/01/18 13:30:55;;;;;;;3.15;2.65;;;1.90;99.90;;;;;;5091903;28;20016;-64
2023/01/18 13:33:23;;;;;;;3.85;2.30;;;1.80;99.90;;;;;;5091877;28;20039;-64
2023/01/18 13:36:00;;;;;;;2.45;2.20;;;2.00;99.90;;;;;;5095685;28;20054;-64
2023/01/18 13:38:27;;;;;;;3.63;2.40;;;1.90;99.90;;;;;;5094512;28;20400;-63
2023/01/18 13:40:57;;;;;;;2.10;1.88;;;1.70;99.90;;;;;;5096146;28;20664;-64